Time;durP1;ratioP1;P1;durP2;ratioP2;P2;SDS_P1;SDS_P2;PMS_P1;PMS_P2;Temp;Humidity;BMP_temperature;BMP_pressure;BME280_temperature;BME280_humidity;BME280_pressure;Samples;Min_cycle;Max_cycle;Signal;HPM_P1;HPM_P2
2021/07/12 00:00:52;;;;;;;;;4.25;3.75;;;;;-144.77;100.00;61770.03;4979379;28;8813;-80
2021/07/12 00:03:17;;;;;;;;;3.75;3.75;;;;;-144.77;100.00;61770.03;4985000;28;8796;-80
2021/07/12 00:05:43;;;;;;;;;6.50;4.75;;;;;-144.77;100.00;61770.03;4996975;28;8798;-81
2021/07/12 00:08:09;;;;;;;;;4.75;4.25;;;;;-144.77;100.00;61770.03;4996837;28;8789;-81
2021/07/12 00:10:36;;;;;;;;;4.75;4.75;;;;;-144.77;100.00;61770.03;4997055;28;8832;-81
2021/07/12 00:13:02;;;;;;;;;3.00;3.00;;;;;-144.77;100.00;61770.03;4996855;28;8815;-80
2021/07/12 00:15:29;;;;;;;;;3.25;3.25;;;;;-144.77;100.00;61770.03;4996672;28;8814;-80
2021/07/12 00:17:55;;;;;;;;;3.00;3.00;;;;;-144.77;100.00;61770.03;4996449;28;8816;-80
2021/07/12 00:20:21;;;;;;;;;5.75;3.75;;;;;-144.77;100.00;61770.03;4996779;28;8797;-80
2021/07/12 00:22:48;;;;;;;;;4.00;4.00;;;;;-144.77;100.00;61770.03;4992306;28;8786;-80
2021/07/12 00:25:14;;;;;;;;;4.00;4.00;;;;;-144.77;100.00;61770.03;4996684;28;8816;-81
2021/07/12 00:27:41;;;;;;;;;4.75;4.75;;;;;-144.77;100.00;61770.03;4996508;28;8905;-81
2021/07/12 00:30:10;;;;;;;;;3.00;3.00;;;;;-144.77;100.00;61770.03;4996660;28;9820;-80
2021/07/12 00:32:36;;;;;;;;;5.00;4.25;;;;;-144.77;100.00;61770.03;4996134;28;8734;-80
2021/07/12 00:35:03;;;;;;;;;3.25;3.25;;;;;-144.77;100.00;61770.03;4996472;28;8908;-81
2021/07/12 00:37:28;;;;;;;;;7.00;5.00;;;;;-144.77;100.00;61770.03;4996409;28;8849;-81
2021/07/12 00:39:54;;;;;;;;;3.50;3.50;;;;;-144.77;100.00;61770.03;4996557;28;8915;-81
2021/07/12 00:42:19;;;;;;;;;4.25;4.25;;;;;-144.77;100.00;61770.03;4996324;28;8893;-81
2021/07/12 00:44:45;;;;;;;;;3.75;3.75;;;;;-144.77;100.00;61770.03;4996487;28;8826;-81
2021/07/12 00:47:10;;;;;;;;;5.00;4.00;;;;;-144.77;100.00;61770.03;4996125;28;9573;-81
2021/07/12 00:49:36;;;;;;;;;5.50;4.50;;;;;-144.77;100.00;61770.03;4996343;28;8908;-81
2021/07/12 00:52:03;;;;;;;;;3.00;3.00;;;;;-144.77;100.00;61770.03;4996150;28;8786;-81
2021/07/12 00:54:29;;;;;;;;;3.00;3.00;;;;;-144.77;100.00;61770.03;4978668;28;8985;-81
2021/07/12 00:56:57;;;;;;;;;3.75;3.50;;;;;-144.77;100.00;61770.03;4995987;28;9612;-80
2021/07/12 00:59:23;;;;;;;;;5.50;5.00;;;;;-144.77;100.00;61770.03;4996084;28;8867;-81
2021/07/12 01:01:49;;;;;;;;;6.50;6.00;;;;;-144.77;100.00;61770.03;4976203;28;9019;-81
2021/07/12 01:04:14;;;;;;;;;4.50;4.50;;;;;-144.77;100.00;61770.03;4986544;28;8864;-80
2021/07/12 01:06:40;;;;;;;;;5.00;4.50;;;;;-144.77;100.00;61770.03;4996034;28;8952;-80
2021/07/12 01:09:05;;;;;;;;;7.25;5.00;;;;;-144.77;100.00;61770.03;4996056;28;8840;-80
2021/07/12 01:11:59;;;;;;;;;6.25;5.00;;;;;-144.77;100.00;61770.03;4995959;28;8801;-80
2021/07/12 01:14:34;;;;;;;;;4.75;3.50;;;;;-144.77;100.00;61770.03;4995778;28;8822;-80
2021/07/12 01:17:05;;;;;;;;;4.25;3.75;;;;;-144.77;100.00;61770.03;4978280;28;8968;-80
2021/07/12 01:19:53;;;;;;;;;4.25;4.25;;;;;-144.77;100.00;61770.03;4995670;28;8742;-80
2021/07/12 01:22:40;;;;;;;;;5.25;3.75;;;;;-144.77;100.00;61770.03;4995733;28;8872;-80
2021/07/12 01:25:43;;;;;;;;;4.25;4.25;;;;;-144.77;100.00;61770.03;4978220;28;8751;-81
2021/07/12 01:28:21;;;;;;;;;5.00;4.25;;;;;-144.77;100.00;61770.03;4995681;28;8884;-80
2021/07/12 01:31:06;;;;;;;;;4.75;3.50;;;;;-144.77;100.00;61770.03;4995681;28;8798;-80
2021/07/12 01:34:05;;;;;;;;;7.00;3.75;;;;;-144.77;100.00;61770.03;4977883;28;8911;-80
2021/07/12 01:36:41;;;;;;;;;3.50;3.50;;;;;-144.77;100.00;61770.03;4991602;28;8818;-80
2021/07/12 01:39:21;;;;;;;;;4.25;4.25;;;;;-144.77;100.00;61770.03;4978050;28;8904;-80
2021/07/12 01:42:06;;;;;;;;;6.50;6.25;;;;;-144.77;100.00;61770.03;4978055;28;8836;-81
2021/07/12 01:45:05;;;;;;;;;5.00;5.00;;;;;-144.77;100.00;61770.03;4995599;28;8790;-81
2021/07/12 01:47:41;;;;;;;;;4.25;4.00;;;;;-144.77;100.00;61770.03;4995173;28;9794;-80
2021/07/12 01:50:41;;;;;;;;;2.50;2.50;;;;;-144.77;100.00;61770.03;4977838;28;8843;-80
2021/07/12 01:53:23;;;;;;;;;5.50;4.50;;;;;-144.77;100.00;61770.03;4995438;28;8889;-80
2021/07/12 01:56:15;;;;;;;;;4.25;4.25;;;;;-144.77;100.00;61770.03;4995409;28;8814;-80
2021/07/12 01:58:47;;;;;;;;;5.75;5.25;;;;;-144.77;100.00;61770.03;4995505;28;9712;-83
2021/07/12 02:01:15;;;;;;;;;5.50;4.00;;;;;-144.77;100.00;61770.03;4995574;28;8825;-81
2021/07/12 02:03:42;;;;;;;;;6.50;5.00;;;;;-144.77;100.00;61770.03;4983557;28;8805;-81
2021/07/12 02:06:10;;;;;;;;;5.00;5.00;;;;;-144.77;100.00;61770.03;4999049;28;8798;-82
2021/07/12 02:08:45;;;;;;;;;4.00;4.00;;;;;-144.77;100.00;61770.03;4998771;28;8879;-81
2021/07/12 02:11:13;;;;;;;;;4.50;4.50;;;;;-144.77;100.00;61770.03;4981341;28;8801;-81
2021/07/12 02:13:40;;;;;;;;;5.50;5.25;;;;;-144.77;100.00;61770.03;4998420;28;9820;-81
2021/07/12 02:16:07;;;;;;;;;4.50;4.50;;;;;-144.77;100.00;61770.03;4998917;28;8913;-81
2021/07/12 02:18:35;;;;;;;;;4.25;3.50;;;;;-144.77;100.00;61770.03;4985557;28;8836;-80
2021/07/12 02:21:03;;;;;;;;;4.75;4.75;;;;;-144.77;100.00;61770.03;4998496;28;8838;-80
2021/07/12 02:23:30;;;;;;;;;4.00;4.00;;;;;-144.77;100.00;61770.03;4998645;28;8821;-80
2021/07/12 02:25:57;;;;;;;;;3.75;3.25;;;;;-144.77;100.00;61770.03;4998405;28;8928;-80
2021/07/12 02:28:25;;;;;;;;;5.50;3.25;;;;;-144.77;100.00;61770.03;4998574;28;8771;-80
2021/07/12 02:30:53;;;;;;;;;3.75;3.75;;;;;-144.77;100.00;61770.03;4998302;28;8773;-80
2021/07/12 02:33:19;;;;;;;;;4.50;4.00;;;;;-144.77;100.00;61770.03;4998404;28;9771;-79
2021/07/12 02:35:45;;;;;;;;;4.00;3.75;;;;;-144.77;100.00;61770.03;4998284;28;8826;-79
2021/07/12 02:38:12;;;;;;;;;3.75;3.75;;;;;-144.77;100.00;61770.03;4998414;28;8832;-78
2021/07/12 02:40:38;;;;;;;;;3.50;3.50;;;;;-144.77;100.00;61770.03;4998119;28;8797;-79
2021/07/12 02:43:05;;;;;;;;;3.25;3.25;;;;;-144.77;100.00;61770.03;4998328;28;8825;-78
2021/07/12 02:45:31;;;;;;;;;3.50;3.50;;;;;-144.77;100.00;61770.03;4998178;28;8895;-80
2021/07/12 02:47:57;;;;;;;;;5.00;3.75;;;;;-144.77;100.00;61770.03;4998022;28;8750;-80
2021/07/12 02:50:27;;;;;;;;;6.75;3.75;;;;;-144.77;100.00;61770.03;4998162;28;8813;-80
2021/07/12 02:52:58;;;;;;;;;4.00;4.00;;;;;-144.77;100.00;61770.03;4998156;28;8750;-80
2021/07/12 02:55:24;;;;;;;;;2.75;2.75;;;;;-144.77;100.00;61770.03;4997832;28;8864;-80
2021/07/12 02:57:50;;;;;;;;;5.00;4.00;;;;;-144.77;100.00;61770.03;4998016;28;8833;-80
2021/07/12 03:00:16;;;;;;;;;3.25;3.25;;;;;-144.77;100.00;61770.03;4997954;28;8825;-80
2021/07/12 03:02:42;;;;;;;;;3.50;3.25;;;;;-144.77;100.00;61770.03;4988723;28;8854;-79
2021/07/12 03:05:09;;;;;;;;;4.25;3.00;;;;;-144.77;100.00;61770.03;4995279;28;8837;-80
2021/07/12 03:08:36;;;;;;;;;5.00;3.75;;;;;-144.77;100.00;61770.03;4997997;28;8830;-80
2021/07/12 03:11:04;;;;;;;;;4.25;4.25;;;;;-144.77;100.00;61770.03;4976427;28;8837;-80
2021/07/12 03:13:38;;;;;;;;;6.50;4.25;;;;;-144.77;100.00;61770.03;4975765;28;8806;-80
2021/07/12 03:16:05;;;;;;;;;3.00;3.00;;;;;-144.77;100.00;61770.03;4976073;28;8740;-80
2021/07/12 03:18:38;;;;;;;;;5.00;4.00;;;;;-144.77;100.00;61770.03;4997711;28;8906;-81
2021/07/12 03:21:05;;;;;;;;;0.00;0.00;;;;;-144.77;100.00;61770.03;4997822;28;9738;-81
2021/07/12 03:23:41;;;;;;;;;5.00;4.50;;;;;-144.77;100.00;61770.03;4997716;28;8790;-81
2021/07/12 03:26:09;;;;;;;;;3.75;3.75;;;;;-144.77;100.00;61770.03;4997746;28;8816;-80
2021/07/12 03:28:38;;;;;;;;;2.00;2.00;;;;;-144.77;100.00;61770.03;4997813;28;8798;-82
2021/07/12 03:31:05;;;;;;;;;5.50;5.50;;;;;-144.77;100.00;61770.03;4997569;28;8797;-81
2021/07/12 03:33:32;;;;;;;;;3.25;3.25;;;;;-144.77;100.00;61770.03;4997261;28;8884;-80
2021/07/12 03:36:00;;;;;;;;;6.00;4.25;;;;;-144.77;100.00;61770.03;4997485;28;8797;-80
2021/07/12 03:38:25;;;;;;;;;3.50;3.50;;;;;-144.77;100.00;61770.03;4997418;28;8812;-80
2021/07/12 03:40:52;;;;;;;;;7.25;5.50;;;;;-144.77;100.00;61770.03;4997499;28;9573;-81
2021/07/12 03:43:18;;;;;;;;;4.50;4.50;;;;;-144.77;100.00;61770.03;4997310;28;8832;-80
2021/07/12 03:45:53;;;;;;;;;7.25;7.25;;;;;-144.77;100.00;61770.03;4997337;28;8806;-80
2021/07/12 03:48:18;;;;;;;;;5.25;5.00;;;;;-144.77;100.00;61770.03;4997114;28;8797;-80
2021/07/12 03:50:44;;;;;;;;;9.50;7.50;;;;;-144.77;100.00;61770.03;4997167;28;8895;-80
2021/07/12 03:53:10;;;;;;;;;8.25;8.25;;;;;-144.77;100.00;61770.03;4997374;28;8834;-80
2021/07/12 03:55:36;;;;;;;;;7.00;7.00;;;;;-144.77;100.00;61770.03;4996894;28;8846;-80
2021/07/12 03:58:03;;;;;;;;;10.25;7.75;;;;;-144.77;100.00;61770.03;4979337;28;9585;-80
2021/07/12 04:00:30;;;;;;;;;6.50;5.50;;;;;-144.77;100.00;61770.03;4996991;28;8847;-80
2021/07/12 04:02:56;;;;;;;;;7.00;6.25;;;;;-144.77;100.00;61770.03;4985982;28;8951;-80
2021/07/12 04:05:27;;;;;;;;;6.50;6.50;;;;;-144.77;100.00;61770.03;4995673;28;8805;-80
2021/07/12 04:07:55;;;;;;;;;5.75;5.75;;;;;-144.77;100.00;61770.03;4997307;28;8810;-80
2021/07/12 04:10:20;;;;;;;;;4.50;3.75;;;;;-144.77;100.00;61770.03;4996862;28;8794;-80
2021/07/12 04:12:47;;;;;;;;;5.25;5.25;;;;;-144.77;100.00;61770.03;4997037;28;8813;-80
2021/07/12 04:15:14;;;;;;;;;5.25;4.50;;;;;-144.77;100.00;61770.03;4996596;28;8853;-80
2021/07/12 04:17:40;;;;;;;;;4.00;4.00;;;;;-144.77;100.00;61770.03;4996969;28;8824;-79
2021/07/12 04:20:08;;;;;;;;;7.50;5.25;;;;;-144.77;100.00;61770.03;4996785;28;8880;-80
2021/07/12 04:22:33;;;;;;;;;4.75;4.50;;;;;-144.77;100.00;61770.03;4996543;28;8810;-80
2021/07/12 04:24:59;;;;;;;;;3.75;3.75;;;;;-144.77;100.00;61770.03;4996725;28;8905;-80
2021/07/12 04:27:24;;;;;;;;;4.75;3.50;;;;;-144.77;100.00;61770.03;4978503;28;8855;-80
2021/07/12 04:29:50;;;;;;;;;4.50;4.50;;;;;-144.77;100.00;61770.03;4996905;28;8798;-80
2021/07/12 04:32:16;;;;;;;;;4.00;4.00;;;;;-144.77;100.00;61770.03;4996461;28;8931;-80
2021/07/12 04:34:41;;;;;;;;;6.25;4.00;;;;;-144.77;100.00;61770.03;4996626;28;8834;-80
2021/07/12 04:37:07;;;;;;;;;4.25;4.25;;;;;-144.77;100.00;61770.03;4996530;28;8868;-80
2021/07/12 04:39:33;;;;;;;;;4.00;4.00;;;;;-144.77;100.00;61770.03;4996510;28;8860;-81
2021/07/12 04:41:59;;;;;;;;;5.25;3.50;;;;;-144.77;100.00;61770.03;4996524;28;8793;-81
2021/07/12 04:44:24;;;;;;;;;3.00;3.00;;;;;-144.77;100.00;61770.03;4996457;28;8810;-81
2021/07/12 04:46:50;;;;;;;;;4.75;4.75;;;;;-144.77;100.00;61770.03;4978590;28;8830;-80
2021/07/12 04:49:16;;;;;;;;;3.25;3.25;;;;;-144.77;100.00;61770.03;4996334;28;8801;-80
2021/07/12 04:51:43;;;;;;;;;3.50;3.50;;;;;-144.77;100.00;61770.03;4996479;28;8805;-80
2021/07/12 04:54:08;;;;;;;;;4.00;4.00;;;;;-144.77;100.00;61770.03;4996589;28;8813;-80
2021/07/12 04:56:35;;;;;;;;;4.00;4.00;;;;;-144.77;100.00;61770.03;4996171;28;8833;-80
2021/07/12 04:59:04;;;;;;;;;4.00;3.25;;;;;-144.77;100.00;61770.03;4996444;28;10181;-80
2021/07/12 05:01:33;;;;;;;;;4.50;3.75;;;;;-144.77;100.00;61770.03;4996009;28;8814;-80
2021/07/12 05:04:03;;;;;;;;;3.00;3.00;;;;;-144.77;100.00;61770.03;4984252;28;8891;-80
2021/07/12 05:06:29;;;;;;;;;5.75;3.50;;;;;-144.77;100.00;61770.03;4996098;28;8798;-80
2021/07/12 05:08:56;;;;;;;;;3.25;3.25;;;;;-144.77;100.00;61770.03;4996322;28;8829;-80
2021/07/12 05:11:23;;;;;;;;;4.75;4.75;;;;;-144.77;100.00;61770.03;4995989;28;8813;-80
2021/07/12 05:13:49;;;;;;;;;4.00;3.25;;;;;-144.77;100.00;61770.03;4995864;28;9749;-80
2021/07/12 05:16:15;;;;;;;;;4.25;4.25;;;;;-144.77;100.00;61770.03;4995892;28;8818;-80
2021/07/12 05:18:40;;;;;;;;;3.25;3.25;;;;;-144.77;100.00;61770.03;4995935;28;8912;-80
2021/07/12 05:21:06;;;;;;;;;3.75;3.75;;;;;-144.77;100.00;61770.03;4995779;28;8832;-80
2021/07/12 05:23:32;;;;;;;;;4.25;4.25;;;;;-144.77;100.00;61770.03;4995974;28;8848;-81
2021/07/12 05:25:58;;;;;;;;;4.25;4.25;;;;;-144.77;100.00;61770.03;4995723;28;8826;-80
2021/07/12 05:28:23;;;;;;;;;4.75;4.25;;;;;-144.77;100.00;61770.03;4995808;28;8841;-80
2021/07/12 05:30:49;;;;;;;;;4.25;3.00;;;;;-144.77;100.00;61770.03;4995938;28;8809;-80
2021/07/12 05:33:15;;;;;;;;;4.00;3.00;;;;;-144.77;100.00;61770.03;4995574;28;8833;-80
2021/07/12 05:35:40;;;;;;;;;2.75;2.75;;;;;-144.77;100.00;61770.03;4995676;28;8850;-80
2021/07/12 05:38:07;;;;;;;;;4.00;4.00;;;;;-144.77;100.00;61770.03;4994982;28;8814;-80
2021/07/12 05:40:33;;;;;;;;;2.25;2.25;;;;;-144.77;100.00;61770.03;4995662;28;8774;-80
2021/07/12 05:42:59;;;;;;;;;3.00;3.00;;;;;-144.77;100.00;61770.03;4995505;28;8810;-80
2021/07/12 05:45:25;;;;;;;;;2.75;2.50;;;;;-144.77;100.00;61770.03;4995345;28;8864;-80
2021/07/12 05:47:51;;;;;;;;;3.25;3.25;;;;;-144.77;100.00;61770.03;4977614;28;8830;-80
2021/07/12 05:50:16;;;;;;;;;5.25;3.50;;;;;-144.77;100.00;61770.03;4995346;28;8821;-80
2021/07/12 05:52:42;;;;;;;;;3.50;3.50;;;;;-144.77;100.00;61770.03;4977835;28;8822;-80
2021/07/12 05:55:08;;;;;;;;;4.75;4.25;;;;;-144.77;100.00;61770.03;4995115;28;8848;-80
2021/07/12 05:57:33;;;;;;;;;4.25;4.25;;;;;-144.77;100.00;61770.03;4977785;28;8817;-79
2021/07/12 05:59:59;;;;;;;;;5.00;5.00;;;;;-144.77;100.00;61770.03;4995477;28;8825;-79
2021/07/12 06:02:24;;;;;;;;;4.00;3.50;;;;;-144.77;100.00;61770.03;4988145;28;8808;-79
2021/07/12 06:04:50;;;;;;;;;3.75;3.75;;;;;-144.77;100.00;61770.03;4990120;28;8817;-79
2021/07/12 06:07:16;;;;;;;;;5.00;4.50;;;;;-144.77;100.00;61770.03;4995694;28;8814;-77
2021/07/12 06:09:41;;;;;;;;;5.50;4.00;;;;;-144.77;100.00;61770.03;4995327;28;8785;-77
2021/07/12 06:12:07;;;;;;;;;6.00;4.50;;;;;-144.77;100.00;61770.03;4995387;28;8802;-78
2021/07/12 06:14:33;;;;;;;;;4.00;4.00;;;;;-144.77;100.00;61770.03;4994970;28;8865;-78
2021/07/12 06:16:58;;;;;;;;;3.25;3.25;;;;;-144.77;100.00;61770.03;4995229;28;8816;-78
2021/07/12 06:19:24;;;;;;;;;6.25;5.75;;;;;-144.77;100.00;61770.03;4977559;28;8845;-78
2021/07/12 06:21:49;;;;;;;;;4.50;3.75;;;;;-144.77;100.00;61770.03;4995229;28;8920;-78
2021/07/12 06:24:15;;;;;;;;;4.75;4.75;;;;;-144.77;100.00;61770.03;4995268;28;8822;-77
2021/07/12 06:26:41;;;;;;;;;5.75;4.25;;;;;-144.77;100.00;61770.03;4995366;28;8853;-79
2021/07/12 06:29:06;;;;;;;;;3.25;3.25;;;;;-144.77;100.00;61770.03;4995133;28;8900;-78
2021/07/12 06:31:32;;;;;;;;;5.00;5.00;;;;;-144.77;100.00;61770.03;4994998;28;8849;-78
2021/07/12 06:33:57;;;;;;;;;4.50;4.50;;;;;-144.77;100.00;61770.03;4995040;28;8837;-78
2021/07/12 06:36:23;;;;;;;;;4.50;4.25;;;;;-144.77;100.00;61770.03;4995115;28;9011;-78
2021/07/12 06:38:48;;;;;;;;;6.50;4.00;;;;;-144.77;100.00;61770.03;4977424;28;8965;-81
2021/07/12 06:41:14;;;;;;;;;5.25;5.25;;;;;-144.77;100.00;61770.03;4995092;28;8856;-79
2021/07/12 06:43:39;;;;;;;;;4.25;4.25;;;;;-144.77;100.00;61770.03;4994640;28;8790;-80
2021/07/12 06:46:05;;;;;;;;;5.75;4.75;;;;;-144.77;100.00;61770.03;4985003;28;8871;-80
2021/07/12 06:48:30;;;;;;;;;8.00;6.00;;;;;-144.77;100.00;61770.03;4988900;28;8826;-80
2021/07/12 06:50:56;;;;;;;;;6.25;6.25;;;;;-144.77;100.00;61770.03;4996906;28;8880;-81
2021/07/12 06:53:22;;;;;;;;;7.00;7.00;;;;;-144.77;100.00;61770.03;4974663;28;8829;-81
2021/07/12 06:55:48;;;;;;;;;7.00;6.25;;;;;-144.77;100.00;61770.03;4997972;28;8870;-81
2021/07/12 06:58:13;;;;;;;;;8.00;5.00;;;;;-144.77;100.00;61770.03;4980415;28;8845;-80
2021/07/12 07:00:39;;;;;;;;;8.00;6.50;;;;;-144.77;100.00;61770.03;4998137;28;8928;-80
2021/07/12 07:03:06;;;;;;;;;4.75;4.75;;;;;-144.77;100.00;61770.03;4968023;28;8854;-80
2021/07/12 07:05:32;;;;;;;;;8.00;7.00;;;;;-144.77;100.00;61770.03;4976907;28;8796;-80
2021/07/12 07:07:58;;;;;;;;;6.25;6.25;;;;;-144.77;100.00;61770.03;4991693;28;8845;-80
2021/07/12 07:10:23;;;;;;;;;5.00;5.00;;;;;-144.77;100.00;61770.03;4980175;28;8834;-80
2021/07/12 07:12:49;;;;;;;;;6.50;4.75;;;;;-144.77;100.00;61770.03;4997670;28;8916;-80
2021/07/12 07:15:15;;;;;;;;;6.50;5.50;;;;;-144.77;100.00;61770.03;4997506;28;8859;-80
2021/07/12 07:17:40;;;;;;;;;5.25;5.25;;;;;-144.77;100.00;61770.03;4997499;28;8840;-81
2021/07/12 07:20:07;;;;;;;;;7.50;5.00;;;;;-144.77;100.00;61770.03;4979895;28;8833;-80
2021/07/12 07:22:33;;;;;;;;;5.25;5.25;;;;;-144.77;100.00;61770.03;4997586;28;8852;-81
2021/07/12 07:24:58;;;;;;;;;7.00;7.00;;;;;-144.77;100.00;61770.03;4997686;28;8806;-81
2021/07/12 07:27:24;;;;;;;;;5.50;5.50;;;;;-144.77;100.00;61770.03;4997537;28;8836;-80
2021/07/12 07:29:50;;;;;;;;;6.00;6.00;;;;;-144.77;100.00;61770.03;4997534;28;8814;-80
2021/07/12 07:32:15;;;;;;;;;9.50;7.75;;;;;-144.77;100.00;61770.03;4997201;28;8826;-80
2021/07/12 07:34:42;;;;;;;;;5.75;5.75;;;;;-144.77;100.00;61770.03;4997292;28;9542;-80
2021/07/12 07:37:09;;;;;;;;;6.50;6.00;;;;;-144.77;100.00;61770.03;4997425;28;8802;-80
2021/07/12 07:39:35;;;;;;;;;9.00;7.00;;;;;-144.77;100.00;61770.03;4991697;28;8821;-80
2021/07/12 07:42:01;;;;;;;;;6.00;6.00;;;;;-144.77;100.00;61770.03;4997343;28;8794;-80
2021/07/12 07:44:26;;;;;;;;;5.00;5.00;;;;;-144.77;100.00;61770.03;4997325;28;8919;-81
2021/07/12 07:46:52;;;;;;;;;6.00;4.75;;;;;-144.77;100.00;61770.03;4997263;28;8908;-80
2021/07/12 07:49:18;;;;;;;;;6.00;4.25;;;;;-144.77;100.00;61770.03;4997259;28;8823;-81
2021/07/12 07:51:44;;;;;;;;;8.00;6.25;;;;;-144.77;100.00;61770.03;4997195;28;8904;-81
2021/07/12 07:54:10;;;;;;;;;9.50;7.75;;;;;-144.77;100.00;61770.03;4997108;28;8821;-81
2021/07/12 07:56:37;;;;;;;;;6.75;6.50;;;;;-144.77;100.00;61770.03;4996981;28;8809;-80
2021/07/12 07:59:06;;;;;;;;;9.00;9.00;;;;;-144.77;100.00;61770.03;4997364;28;8825;-80
2021/07/12 08:01:32;;;;;;;;;8.75;6.50;;;;;-144.77;100.00;61770.03;4995739;28;8805;-81
2021/07/12 08:03:58;;;;;;;;;5.50;5.50;;;;;-144.77;100.00;61770.03;4997494;28;8808;-81
2021/07/12 08:06:24;;;;;;;;;7.25;5.50;;;;;-144.77;100.00;61770.03;4996826;28;8931;-81
2021/07/12 08:08:50;;;;;;;;;9.25;7.25;;;;;-144.77;100.00;61770.03;4979208;28;9510;-81
2021/07/12 08:11:16;;;;;;;;;6.50;6.00;;;;;-144.77;100.00;61770.03;4996604;28;8826;-81
2021/07/12 08:13:42;;;;;;;;;6.75;6.75;;;;;-144.77;100.00;61770.03;4996609;28;8805;-80
2021/07/12 08:16:08;;;;;;;;;9.00;7.75;;;;;-144.77;100.00;61770.03;4996769;28;8789;-81
2021/07/12 08:18:34;;;;;;;;;7.75;7.75;;;;;-144.77;100.00;61770.03;4996861;28;8852;-80
2021/07/12 08:21:00;;;;;;;;;6.75;6.00;;;;;-144.77;100.00;61770.03;4996587;28;8820;-80
2021/07/12 08:23:26;;;;;;;;;6.50;6.50;;;;;-144.77;100.00;61770.03;4996892;28;8832;-81
2021/07/12 08:25:52;;;;;;;;;8.00;8.00;;;;;-144.77;100.00;61770.03;4996546;28;8817;-81
2021/07/12 08:28:18;;;;;;;;;10.00;8.00;;;;;-144.77;100.00;61770.03;4978836;28;8813;-81
2021/07/12 08:30:45;;;;;;;;;9.50;5.75;;;;;-144.77;100.00;61770.03;4996376;28;8805;-80
2021/07/12 08:33:11;;;;;;;;;7.00;6.00;;;;;-144.77;100.00;61770.03;4996357;28;8888;-80
2021/07/12 08:35:36;;;;;;;;;5.50;5.00;;;;;-144.77;100.00;61770.03;4996252;28;8975;-80
2021/07/12 08:38:04;;;;;;;;;6.25;5.75;;;;;-144.77;100.00;61770.03;4996569;28;8813;-80
2021/07/12 08:40:30;;;;;;;;;11.00;6.00;;;;;-144.77;100.00;61770.03;4990753;28;8790;-80
2021/07/12 08:42:57;;;;;;;;;6.00;6.00;;;;;-144.77;100.00;61770.03;4996622;28;8891;-80
2021/07/12 08:45:24;;;;;;;;;7.00;6.50;;;;;-144.77;100.00;61770.03;4996210;28;8940;-80
2021/07/12 08:47:50;;;;;;;;;6.00;6.00;;;;;-144.77;100.00;61770.03;4996379;28;8786;-80
2021/07/12 08:50:16;;;;;;;;;7.00;5.75;;;;;-144.77;100.00;61770.03;4996267;28;9676;-80
2021/07/12 08:52:47;;;;;;;;;9.25;9.25;;;;;-144.77;100.00;61770.03;4996413;28;8790;-80
2021/07/12 08:55:13;;;;;;;;;9.50;9.25;;;;;-144.77;100.00;61770.03;4995948;28;8824;-80
2021/07/12 08:57:42;;;;;;;;;6.75;6.75;;;;;-144.77;100.00;61770.03;4996453;28;8746;-80
2021/07/12 09:00:09;;;;;;;;;6.25;6.25;;;;;-144.77;100.00;61770.03;4996177;28;8727;-80
2021/07/12 09:02:37;;;;;;;;;7.75;7.25;;;;;-144.77;100.00;61770.03;4995891;28;8867;-80
2021/07/12 09:05:07;;;;;;;;;7.25;6.75;;;;;-144.77;100.00;61770.03;4995818;28;8802;-80
2021/07/12 09:07:33;;;;;;;;;8.00;6.50;;;;;-144.77;100.00;61770.03;4996112;28;8814;-80
2021/07/12 09:10:09;;;;;;;;;9.25;8.00;;;;;-144.77;100.00;61770.03;4978272;28;8896;-80
2021/07/12 09:12:39;;;;;;;;;11.50;8.25;;;;;-144.77;100.00;61770.03;4996145;28;8881;-80
2021/07/12 09:15:07;;;;;;;;;9.25;7.75;;;;;-144.77;100.00;61770.03;4994075;28;8884;-80
2021/07/12 09:17:36;;;;;;;;;9.25;7.50;;;;;-144.77;100.00;61770.03;4995491;28;8794;-80
2021/07/12 09:20:04;;;;;;;;;10.25;9.50;;;;;-144.77;100.00;61770.03;4995354;28;8798;-80
2021/07/12 09:22:36;;;;;;;;;11.00;11.00;;;;;-144.77;100.00;61770.03;4995278;28;8864;-80
2021/07/12 09:25:06;;;;;;;;;7.75;7.25;;;;;-144.77;100.00;61770.03;4995758;28;8782;-80
2021/07/12 09:27:32;;;;;;;;;12.25;9.75;;;;;-144.77;100.00;61770.03;4995267;28;8832;-80
2021/07/12 09:30:00;;;;;;;;;9.75;8.25;;;;;-144.77;100.00;61770.03;4995802;28;8896;-80
2021/07/12 09:32:30;;;;;;;;;9.25;9.25;;;;;-144.77;100.00;61770.03;4995218;28;8766;-81
2021/07/12 09:35:01;;;;;;;;;7.50;7.50;;;;;-144.77;100.00;61770.03;4995424;28;8818;-82
2021/07/12 09:37:28;;;;;;;;;10.00;10.00;;;;;-144.77;100.00;61770.03;4995357;28;8778;-81
2021/07/12 09:39:54;;;;;;;;;9.50;8.25;;;;;-144.77;100.00;61770.03;4989565;28;9664;-81
2021/07/12 09:42:26;;;;;;;;;8.75;6.75;;;;;-144.77;100.00;61770.03;4995269;28;8850;-80
2021/07/12 09:44:56;;;;;;;;;11.00;9.75;;;;;-144.77;100.00;61770.03;4995448;28;9727;-80
2021/07/12 09:47:25;;;;;;;;;9.25;6.75;;;;;-144.77;100.00;61770.03;4995076;28;8884;-80
2021/07/12 09:49:59;;;;;;;;;6.75;6.75;;;;;-144.77;100.00;61770.03;4994797;28;8818;-80
2021/07/12 09:52:24;;;;;;;;;13.25;10.00;;;;;-144.77;100.00;61770.03;4994549;28;8805;-80
2021/07/12 09:54:51;;;;;;;;;14.75;7.50;;;;;-144.77;100.00;61770.03;4995255;28;8919;-80
2021/07/12 09:57:22;;;;;;;;;7.50;7.50;;;;;-144.77;100.00;61770.03;4995117;28;8818;-80
2021/07/12 10:00:08;;;;;;;;;7.75;7.25;;;;;-144.77;100.00;61770.03;4995416;28;8790;-80
2021/07/12 10:02:36;;;;;;;;;6.00;6.00;;;;;-144.77;100.00;61770.03;4995267;28;8812;-80
2021/07/12 10:05:09;;;;;;;;;9.00;9.00;;;;;-144.77;100.00;61770.03;4995018;28;8850;-80
2021/07/12 10:07:37;;;;;;;;;7.75;6.00;;;;;-144.77;100.00;61770.03;4995470;28;8770;-79
2021/07/12 10:10:06;;;;;;;;;6.00;6.00;;;;;-144.77;100.00;61770.03;4995033;28;8794;-80
2021/07/12 10:12:35;;;;;;;;;9.25;8.50;;;;;-144.77;100.00;61770.03;4995135;28;8770;-83
2021/07/12 10:15:00;;;;;;;;;9.25;7.25;;;;;-144.77;100.00;61770.03;4987822;28;8846;-81
2021/07/12 10:17:26;;;;;;;;;11.50;10.00;;;;;-144.77;100.00;61770.03;4994811;28;8873;-81
2021/07/12 10:19:52;;;;;;;;;9.00;7.75;;;;;-144.77;100.00;61770.03;4994869;28;8827;-81
2021/07/12 10:22:22;;;;;;;;;10.25;9.50;;;;;-144.77;100.00;61770.03;4989760;28;8880;-81
2021/07/12 10:24:48;;;;;;;;;8.25;7.25;;;;;-144.77;100.00;61770.03;4994671;28;8811;-81
2021/07/12 10:27:25;;;;;;;;;5.75;5.75;;;;;-144.77;100.00;61770.03;4996904;28;8845;-81
2021/07/12 10:29:52;;;;;;;;;8.00;7.50;;;;;-144.77;100.00;61770.03;5003192;28;9769;-82
2021/07/12 10:32:20;;;;;;;;;6.75;6.75;;;;;-144.77;100.00;61770.03;5004862;28;8775;-82
2021/07/12 10:34:56;;;;;;;;;7.50;7.50;;;;;-144.77;100.00;61770.03;4996658;28;8841;-82
2021/07/12 10:37:26;;;;;;;;;7.50;6.75;;;;;-144.77;100.00;61770.03;4998152;28;8799;-81
2021/07/12 10:40:05;;;;;;;;;10.00;7.50;;;;;-144.77;100.00;61770.03;4992318;28;8899;-82
2021/07/12 10:42:53;;;;;;;;;9.00;7.00;;;;;-144.77;100.00;61770.03;4997873;28;8783;-82
2021/07/12 10:45:22;;;;;;;;;8.50;7.75;;;;;-144.77;100.00;61770.03;4997951;28;8899;-81
2021/07/12 10:48:04;;;;;;;;;8.75;7.00;;;;;-144.77;100.00;61770.03;4998107;28;8806;-82
2021/07/12 10:50:40;;;;;;;;;8.50;7.25;;;;;-144.77;100.00;61770.03;4998028;28;8787;-81
2021/07/12 10:53:14;;;;;;;;;7.50;7.00;;;;;-144.77;100.00;61770.03;4997718;28;8906;-81
2021/07/12 10:55:45;;;;;;;;;11.25;8.75;;;;;-144.77;100.00;61770.03;4997144;28;8827;-83
2021/07/12 10:58:26;;;;;;;;;7.25;7.25;;;;;-144.77;100.00;61770.03;4997978;28;8798;-82
2021/07/12 11:00:53;;;;;;;;;9.00;9.00;;;;;-144.77;100.00;61770.03;4997995;28;8807;-81
2021/07/12 11:03:39;;;;;;;;;9.00;8.75;;;;;-144.77;100.00;61770.03;4997249;28;8814;-80
2021/07/12 11:06:05;;;;;;;;;9.00;8.00;;;;;-144.77;100.00;61770.03;4994904;28;8779;-82
2021/07/12 11:08:46;;;;;;;;;5.25;5.25;;;;;-144.77;100.00;61770.03;4997400;28;8795;-81
2021/07/12 11:11:24;;;;;;;;;10.50;9.00;;;;;-144.77;100.00;61770.03;4997711;28;8803;-81
2021/07/12 11:13:57;;;;;;;;;8.75;8.50;;;;;-144.77;100.00;61770.03;4997354;28;8802;-80
2021/07/12 11:16:25;;;;;;;;;7.00;5.50;;;;;-144.77;100.00;61770.03;4997335;28;9676;-79
2021/07/12 11:18:55;;;;;;;;;7.75;6.75;;;;;-144.77;100.00;61770.03;4979826;28;8762;-79
2021/07/12 11:21:34;;;;;;;;;6.75;6.75;;;;;-144.77;100.00;61770.03;4997345;28;8798;-79
2021/07/12 11:24:09;;;;;;;;;8.50;7.75;;;;;-144.77;100.00;61770.03;4997445;28;8809;-80